sensor_id;sensor_type;location;lat;lon;timestamp;P1;durP1;ratioP1;P2;durP2;ratioP2
75071;SDS011;63651;55.728;38.022;2023-03-23T00:02:37;4.00;;;2.53;;
75071;SDS011;63651;55.728;38.022;2023-03-23T00:07:38;4.20;;;2.70;;
75071;SDS011;63651;55.728;38.022;2023-03-23T00:12:45;4.90;;;2.83;;
75071;SDS011;63651;55.728;38.022;2023-03-23T00:17:50;6.22;;;2.97;;
75071;SDS011;63651;55.728;38.022;2023-03-23T00:22:51;6.38;;;3.25;;
75071;SDS011;63651;55.728;38.022;2023-03-23T00:27:52;4.28;;;3.45;;
75071;SDS011;63651;55.728;38.022;2023-03-23T00:32:53;6.60;;;3.72;;
75071;SDS011;63651;55.728;38.022;2023-03-23T00:37:54;7.18;;;3.92;;
75071;SDS011;63651;55.728;38.022;2023-03-23T00:42:56;5.88;;;3.63;;
75071;SDS011;63651;55.728;38.022;2023-03-23T00:47:57;5.97;;;3.70;;
75071;SDS011;63651;55.728;38.022;2023-03-23T00:53:02;6.57;;;3.30;;
75071;SDS011;63651;55.728;38.022;2023-03-23T00:58:03;6.20;;;4.10;;
75071;SDS011;63651;55.728;38.022;2023-03-23T01:03:04;5.57;;;3.55;;
75071;SDS011;63651;55.728;38.022;2023-03-23T01:08:06;6.00;;;3.58;;
75071;SDS011;63651;55.728;38.022;2023-03-23T01:13:07;5.05;;;3.25;;
75071;SDS011;63651;55.728;38.022;2023-03-23T01:18:09;6.28;;;3.92;;
75071;SDS011;63651;55.728;38.022;2023-03-23T01:23:10;4.78;;;3.33;;
75071;SDS011;63651;55.728;38.022;2023-03-23T01:28:11;4.32;;;3.63;;
75071;SDS011;63651;55.728;38.022;2023-03-23T01:33:12;4.00;;;3.10;;
75071;SDS011;63651;55.728;38.022;2023-03-23T01:38:14;4.47;;;3.10;;
75071;SDS011;63651;55.728;38.022;2023-03-23T01:43:15;4.47;;;3.30;;
75071;SDS011;63651;55.728;38.022;2023-03-23T01:53:19;4.93;;;3.17;;
75071;SDS011;63651;55.728;38.022;2023-03-23T01:58:24;4.22;;;3.42;;
75071;SDS011;63651;55.728;38.022;2023-03-23T02:03:30;4.40;;;2.70;;
75071;SDS011;63651;55.728;38.022;2023-03-23T02:08:33;4.28;;;3.00;;
75071;SDS011;63651;55.728;38.022;2023-03-23T02:13:35;4.90;;;3.20;;
75071;SDS011;63651;55.728;38.022;2023-03-23T02:29:07;3.55;;;2.78;;
75071;SDS011;63651;55.728;38.022;2023-03-23T02:39:50;3.75;;;2.88;;
75071;SDS011;63651;55.728;38.022;2023-03-23T02:44:55;3.47;;;2.55;;
75071;SDS011;63651;55.728;38.022;2023-03-23T02:49:59;3.83;;;2.80;;
75071;SDS011;63651;55.728;38.022;2023-03-23T02:55:00;3.83;;;2.70;;
75071;SDS011;63651;55.728;38.022;2023-03-23T03:00:04;4.10;;;2.38;;
75071;SDS011;63651;55.728;38.022;2023-03-23T03:10:25;3.42;;;2.47;;
75071;SDS011;63651;55.728;38.022;2023-03-23T03:15:40;3.00;;;2.70;;
75071;SDS011;63651;55.728;38.022;2023-03-23T03:20:50;3.53;;;2.65;;
75071;SDS011;63651;55.728;38.022;2023-03-23T03:25:56;3.25;;;2.38;;
75071;SDS011;63651;55.728;38.022;2023-03-23T03:30:59;5.38;;;2.28;;
75071;SDS011;63651;55.728;38.022;2023-03-23T03:36:03;3.80;;;2.22;;
75071;SDS011;63651;55.728;38.022;2023-03-23T03:41:12;3.75;;;2.13;;
75071;SDS011;63651;55.728;38.022;2023-03-23T03:46:13;2.58;;;2.20;;
75071;SDS011;63651;55.728;38.022;2023-03-23T03:51:15;4.40;;;2.65;;
75071;SDS011;63651;55.728;38.022;2023-03-23T03:56:17;5.53;;;2.97;;
75071;SDS011;63651;55.728;38.022;2023-03-23T04:01:19;7.80;;;3.80;;
75071;SDS011;63651;55.728;38.022;2023-03-23T04:06:23;5.57;;;3.40;;
75071;SDS011;63651;55.728;38.022;2023-03-23T04:11:25;7.38;;;3.50;;
75071;SDS011;63651;55.728;38.022;2023-03-23T04:16:26;6.45;;;3.08;;
75071;SDS011;63651;55.728;38.022;2023-03-23T04:21:30;5.03;;;3.10;;
75071;SDS011;63651;55.728;38.022;2023-03-23T04:26:31;5.13;;;3.20;;
75071;SDS011;63651;55.728;38.022;2023-03-23T04:31:33;5.45;;;3.38;;
75071;SDS011;63651;55.728;38.022;2023-03-23T04:36:35;6.28;;;3.75;;
75071;SDS011;63651;55.728;38.022;2023-03-23T04:41:36;6.88;;;2.92;;
75071;SDS011;63651;55.728;38.022;2023-03-23T04:46:37;7.57;;;3.33;;
75071;SDS011;63651;55.728;38.022;2023-03-23T04:51:39;6.00;;;3.92;;
75071;SDS011;63651;55.728;38.022;2023-03-23T04:56:40;6.28;;;3.10;;
75071;SDS011;63651;55.728;38.022;2023-03-23T05:01:41;10.48;;;4.15;;
75071;SDS011;63651;55.728;38.022;2023-03-23T05:06:46;8.82;;;4.53;;
75071;SDS011;63651;55.728;38.022;2023-03-23T05:11:47;11.15;;;5.03;;
75071;SDS011;63651;55.728;38.022;2023-03-23T05:16:48;8.98;;;4.95;;
75071;SDS011;63651;55.728;38.022;2023-03-23T05:21:49;7.40;;;4.72;;
75071;SDS011;63651;55.728;38.022;2023-03-23T05:26:50;10.15;;;5.15;;
75071;SDS011;63651;55.728;38.022;2023-03-23T05:38:09;12.32;;;5.03;;
75071;SDS011;63651;55.728;38.022;2023-03-23T05:43:10;10.57;;;4.75;;
75071;SDS011;63651;55.728;38.022;2023-03-23T05:48:11;8.68;;;4.35;;
75071;SDS011;63651;55.728;38.022;2023-03-23T05:53:12;12.07;;;4.05;;
75071;SDS011;63651;55.728;38.022;2023-03-23T05:58:13;9.52;;;4.63;;
75071;SDS011;63651;55.728;38.022;2023-03-23T06:03:14;11.13;;;4.68;;
75071;SDS011;63651;55.728;38.022;2023-03-23T06:08:16;10.20;;;4.47;;
75071;SDS011;63651;55.728;38.022;2023-03-23T06:13:17;7.68;;;4.28;;
75071;SDS011;63651;55.728;38.022;2023-03-23T06:18:18;8.85;;;4.50;;
75071;SDS011;63651;55.728;38.022;2023-03-23T06:23:21;7.70;;;3.95;;
75071;SDS011;63651;55.728;38.022;2023-03-23T06:28:22;7.80;;;4.07;;
75071;SDS011;63651;55.728;38.022;2023-03-23T06:33:23;8.35;;;4.47;;
75071;SDS011;63651;55.728;38.022;2023-03-23T06:38:24;9.25;;;4.43;;
75071;SDS011;63651;55.728;38.022;2023-03-23T06:43:25;7.38;;;4.28;;
75071;SDS011;63651;55.728;38.022;2023-03-23T06:48:26;7.85;;;4.38;;
75071;SDS011;63651;55.728;38.022;2023-03-23T06:53:27;7.95;;;4.82;;
75071;SDS011;63651;55.728;38.022;2023-03-23T06:58:28;7.00;;;4.13;;
75071;SDS011;63651;55.728;38.022;2023-03-23T07:03:30;8.15;;;4.28;;
75071;SDS011;63651;55.728;38.022;2023-03-23T07:08:32;7.03;;;3.92;;
75071;SDS011;63651;55.728;38.022;2023-03-23T07:13:33;7.20;;;3.88;;
75071;SDS011;63651;55.728;38.022;2023-03-23T07:18:34;7.03;;;3.80;;
75071;SDS011;63651;55.728;38.022;2023-03-23T07:23:35;8.88;;;3.38;;
75071;SDS011;63651;55.728;38.022;2023-03-23T07:28:36;5.75;;;3.63;;
75071;SDS011;63651;55.728;38.022;2023-03-23T07:33:37;6.78;;;3.83;;
75071;SDS011;63651;55.728;38.022;2023-03-23T07:38:39;6.40;;;3.83;;
75071;SDS011;63651;55.728;38.022;2023-03-23T07:43:40;6.90;;;3.60;;
75071;SDS011;63651;55.728;38.022;2023-03-23T07:48:42;8.40;;;4.13;;
75071;SDS011;63651;55.728;38.022;2023-03-23T07:53:44;5.47;;;3.20;;
75071;SDS011;63651;55.728;38.022;2023-03-23T07:58:45;4.68;;;3.15;;
75071;SDS011;63651;55.728;38.022;2023-03-23T08:03:47;6.95;;;3.50;;
75071;SDS011;63651;55.728;38.022;2023-03-23T08:08:48;6.40;;;3.33;;
75071;SDS011;63651;55.728;38.022;2023-03-23T08:13:50;4.53;;;3.22;;
75071;SDS011;63651;55.728;38.022;2023-03-23T08:18:51;5.47;;;3.20;;
75071;SDS011;63651;55.728;38.022;2023-03-23T08:23:52;4.38;;;3.22;;
75071;SDS011;63651;55.728;38.022;2023-03-23T08:28:53;4.65;;;3.20;;
75071;SDS011;63651;55.728;38.022;2023-03-23T08:33:54;4.47;;;2.80;;
75071;SDS011;63651;55.728;38.022;2023-03-23T08:38:57;4.80;;;2.95;;
75071;SDS011;63651;55.728;38.022;2023-03-23T08:43:58;5.25;;;3.08;;
75071;SDS011;63651;55.728;38.022;2023-03-23T08:48:59;5.03;;;3.15;;
75071;SDS011;63651;55.728;38.022;2023-03-23T08:54:01;4.55;;;2.80;;
75071;SDS011;63651;55.728;38.022;2023-03-23T08:59:02;4.45;;;2.90;;
75071;SDS011;63651;55.728;38.022;2023-03-23T09:04:03;4.07;;;2.47;;
75071;SDS011;63651;55.728;38.022;2023-03-23T09:09:05;3.58;;;2.58;;
75071;SDS011;63651;55.728;38.022;2023-03-23T09:14:10;4.43;;;2.42;;
75071;SDS011;63651;55.728;38.022;2023-03-23T09:19:11;4.32;;;3.00;;
75071;SDS011;63651;55.728;38.022;2023-03-23T09:24:13;3.67;;;2.60;;
75071;SDS011;63651;55.728;38.022;2023-03-23T09:29:14;3.83;;;2.88;;
75071;SDS011;63651;55.728;38.022;2023-03-23T09:34:15;3.22;;;2.20;;
75071;SDS011;63651;55.728;38.022;2023-03-23T09:39:17;4.38;;;2.25;;
75071;SDS011;63651;55.728;38.022;2023-03-23T09:54:37;2.95;;;2.00;;
75071;SDS011;63651;55.728;38.022;2023-03-23T10:10:38;3.20;;;1.90;;
75071;SDS011;63651;55.728;38.022;2023-03-23T10:15:45;3.03;;;2.05;;
75071;SDS011;63651;55.728;38.022;2023-03-23T10:26:02;3.35;;;2.00;;
75071;SDS011;63651;55.728;38.022;2023-03-23T10:31:13;3.15;;;2.63;;
75071;SDS011;63651;55.728;38.022;2023-03-23T10:36:21;2.47;;;1.88;;
75071;SDS011;63651;55.728;38.022;2023-03-23T10:41:26;2.70;;;1.92;;
75071;SDS011;63651;55.728;38.022;2023-03-23T10:57:01;3.03;;;1.48;;
75071;SDS011;63651;55.728;38.022;2023-03-23T11:02:24;2.58;;;2.05;;
75071;SDS011;63651;55.728;38.022;2023-03-23T11:07:28;2.70;;;1.90;;
75071;SDS011;63651;55.728;38.022;2023-03-23T11:12:33;2.78;;;2.30;;
75071;SDS011;63651;55.728;38.022;2023-03-23T11:17:34;2.63;;;1.65;;
75071;SDS011;63651;55.728;38.022;2023-03-23T11:22:36;2.25;;;1.90;;
75071;SDS011;63651;55.728;38.022;2023-03-23T11:27:37;2.22;;;1.60;;
75071;SDS011;63651;55.728;38.022;2023-03-23T11:32:42;1.77;;;1.42;;
75071;SDS011;63651;55.728;38.022;2023-03-23T11:37:48;2.63;;;1.33;;
75071;SDS011;63651;55.728;38.022;2023-03-23T11:43:00;2.03;;;1.70;;
75071;SDS011;63651;55.728;38.022;2023-03-23T11:48:15;1.40;;;1.10;;
75071;SDS011;63651;55.728;38.022;2023-03-23T11:58:36;2.03;;;1.38;;
75071;SDS011;63651;55.728;38.022;2023-03-23T12:14:13;2.63;;;1.35;;
75071;SDS011;63651;55.728;38.022;2023-03-23T12:30:28;3.00;;;1.70;;
75071;SDS011;63651;55.728;38.022;2023-03-23T12:35:43;2.95;;;1.60;;
75071;SDS011;63651;55.728;38.022;2023-03-23T12:57:26;2.63;;;1.60;;
75071;SDS011;63651;55.728;38.022;2023-03-23T13:02:11;3.20;;;2.35;;
75071;SDS011;63651;55.728;38.022;2023-03-23T13:07:24;3.00;;;1.85;;
75071;SDS011;63651;55.728;38.022;2023-03-23T13:12:29;3.28;;;1.98;;
75071;SDS011;63651;55.728;38.022;2023-03-23T13:23:00;2.85;;;1.60;;
75071;SDS011;63651;55.728;38.022;2023-03-23T13:28:12;2.10;;;1.55;;
75071;SDS011;63651;55.728;38.022;2023-03-23T13:33:16;2.90;;;1.60;;
75071;SDS011;63651;55.728;38.022;2023-03-23T13:38:24;2.17;;;1.17;;
75071;SDS011;63651;55.728;38.022;2023-03-23T13:43:33;2.42;;;1.65;;
75071;SDS011;63651;55.728;38.022;2023-03-23T13:48:48;2.33;;;1.45;;
75071;SDS011;63651;55.728;38.022;2023-03-23T13:53:52;3.38;;;2.00;;
75071;SDS011;63651;55.728;38.022;2023-03-23T13:59:04;2.60;;;1.70;;
75071;SDS011;63651;55.728;38.022;2023-03-23T14:04:10;2.13;;;1.20;;
75071;SDS011;63651;55.728;38.022;2023-03-23T14:09:18;1.90;;;1.02;;
75071;SDS011;63651;55.728;38.022;2023-03-23T14:14:32;1.52;;;1.23;;
75071;SDS011;63651;55.728;38.022;2023-03-23T14:19:37;3.28;;;1.50;;
75071;SDS011;63651;55.728;38.022;2023-03-23T14:24:40;2.20;;;1.70;;
75071;SDS011;63651;55.728;38.022;2023-03-23T14:29:41;2.25;;;1.67;;
75071;SDS011;63651;55.728;38.022;2023-03-23T14:34:43;2.03;;;1.60;;
75071;SDS011;63651;55.728;38.022;2023-03-23T14:39:48;3.40;;;2.10;;
75071;SDS011;63651;55.728;38.022;2023-03-23T14:44:52;2.75;;;1.77;;
75071;SDS011;63651;55.728;38.022;2023-03-23T14:49:55;2.78;;;1.58;;
75071;SDS011;63651;55.728;38.022;2023-03-23T14:55:09;2.00;;;1.42;;
75071;SDS011;63651;55.728;38.022;2023-03-23T15:00:18;3.67;;;1.50;;
75071;SDS011;63651;55.728;38.022;2023-03-23T15:05:27;2.65;;;1.67;;
75071;SDS011;63651;55.728;38.022;2023-03-23T15:10:32;1.92;;;1.50;;
75071;SDS011;63651;55.728;38.022;2023-03-23T15:15:34;2.28;;;1.80;;
75071;SDS011;63651;55.728;38.022;2023-03-23T15:25:52;3.15;;;1.40;;
75071;SDS011;63651;55.728;38.022;2023-03-23T15:30:56;2.70;;;1.98;;
75071;SDS011;63651;55.728;38.022;2023-03-23T15:36:05;2.78;;;2.08;;
75071;SDS011;63651;55.728;38.022;2023-03-23T15:41:26;4.20;;;2.00;;
75071;SDS011;63651;55.728;38.022;2023-03-23T15:46:29;3.97;;;2.40;;
75071;SDS011;63651;55.728;38.022;2023-03-23T15:51:30;3.60;;;2.47;;
75071;SDS011;63651;55.728;38.022;2023-03-23T15:56:33;3.67;;;2.95;;
75071;SDS011;63651;55.728;38.022;2023-03-23T16:01:34;3.42;;;2.60;;
75071;SDS011;63651;55.728;38.022;2023-03-23T16:06:38;3.42;;;1.85;;
75071;SDS011;63651;55.728;38.022;2023-03-23T16:11:40;2.50;;;1.63;;
75071;SDS011;63651;55.728;38.022;2023-03-23T16:21:47;4.00;;;1.65;;
75071;SDS011;63651;55.728;38.022;2023-03-23T16:26:49;3.33;;;1.73;;
75071;SDS011;63651;55.728;38.022;2023-03-23T16:31:50;3.65;;;2.17;;
75071;SDS011;63651;55.728;38.022;2023-03-23T16:36:51;4.70;;;1.90;;
75071;SDS011;63651;55.728;38.022;2023-03-23T16:41:52;3.80;;;1.85;;
75071;SDS011;63651;55.728;38.022;2023-03-23T16:46:53;4.60;;;1.77;;
75071;SDS011;63651;55.728;38.022;2023-03-23T16:51:54;3.63;;;2.47;;
75071;SDS011;63651;55.728;38.022;2023-03-23T16:56:55;5.05;;;3.47;;
75071;SDS011;63651;55.728;38.022;2023-03-23T17:01:56;6.50;;;3.50;;
75071;SDS011;63651;55.728;38.022;2023-03-23T17:07:03;4.03;;;2.88;;
75071;SDS011;63651;55.728;38.022;2023-03-23T17:12:05;5.05;;;3.00;;
75071;SDS011;63651;55.728;38.022;2023-03-23T17:17:07;4.43;;;3.03;;
75071;SDS011;63651;55.728;38.022;2023-03-23T17:22:08;3.10;;;2.63;;
75071;SDS011;63651;55.728;38.022;2023-03-23T17:27:09;3.15;;;2.60;;
75071;SDS011;63651;55.728;38.022;2023-03-23T17:32:11;3.72;;;2.83;;
75071;SDS011;63651;55.728;38.022;2023-03-23T17:37:12;3.97;;;2.65;;
75071;SDS011;63651;55.728;38.022;2023-03-23T17:42:13;3.65;;;2.33;;
75071;SDS011;63651;55.728;38.022;2023-03-23T17:47:14;4.45;;;2.70;;
75071;SDS011;63651;55.728;38.022;2023-03-23T17:52:15;4.82;;;2.67;;
75071;SDS011;63651;55.728;38.022;2023-03-23T17:57:16;3.20;;;2.75;;
75071;SDS011;63651;55.728;38.022;2023-03-23T18:02:17;3.85;;;2.90;;
75071;SDS011;63651;55.728;38.022;2023-03-23T18:07:18;4.03;;;2.78;;
75071;SDS011;63651;55.728;38.022;2023-03-23T18:12:23;5.60;;;2.92;;
75071;SDS011;63651;55.728;38.022;2023-03-23T18:17:24;5.82;;;3.63;;
75071;SDS011;63651;55.728;38.022;2023-03-23T18:22:26;4.90;;;3.30;;
75071;SDS011;63651;55.728;38.022;2023-03-23T18:27:27;6.80;;;4.28;;
75071;SDS011;63651;55.728;38.022;2023-03-23T18:32:28;4.45;;;3.60;;
75071;SDS011;63651;55.728;38.022;2023-03-23T18:37:29;5.18;;;3.47;;
75071;SDS011;63651;55.728;38.022;2023-03-23T18:42:30;5.20;;;3.60;;
75071;SDS011;63651;55.728;38.022;2023-03-23T18:47:31;5.82;;;4.28;;
75071;SDS011;63651;55.728;38.022;2023-03-23T18:52:32;7.30;;;4.60;;
75071;SDS011;63651;55.728;38.022;2023-03-23T18:57:34;6.88;;;4.32;;
75071;SDS011;63651;55.728;38.022;2023-03-23T19:02:35;5.47;;;3.78;;
75071;SDS011;63651;55.728;38.022;2023-03-23T19:07:38;5.20;;;3.28;;
75071;SDS011;63651;55.728;38.022;2023-03-23T19:12:39;4.85;;;3.72;;
75071;SDS011;63651;55.728;38.022;2023-03-23T19:17:41;4.13;;;3.17;;
75071;SDS011;63651;55.728;38.022;2023-03-23T19:22:43;6.38;;;3.75;;
75071;SDS011;63651;55.728;38.022;2023-03-23T19:27:44;4.60;;;3.65;;
75071;SDS011;63651;55.728;38.022;2023-03-23T19:32:46;6.60;;;4.28;;
75071;SDS011;63651;55.728;38.022;2023-03-23T19:37:49;6.43;;;3.00;;
75071;SDS011;63651;55.728;38.022;2023-03-23T19:42:50;4.75;;;3.20;;
75071;SDS011;63651;55.728;38.022;2023-03-23T19:47:51;7.25;;;3.13;;
75071;SDS011;63651;55.728;38.022;2023-03-23T19:52:52;4.97;;;3.88;;
75071;SDS011;63651;55.728;38.022;2023-03-23T19:57:53;6.57;;;4.80;;
75071;SDS011;63651;55.728;38.022;2023-03-23T20:02:54;5.28;;;4.18;;
75071;SDS011;63651;55.728;38.022;2023-03-23T20:07:55;4.90;;;3.70;;
75071;SDS011;63651;55.728;38.022;2023-03-23T20:12:56;7.18;;;4.35;;
75071;SDS011;63651;55.728;38.022;2023-03-23T20:17:58;6.32;;;4.50;;
75071;SDS011;63651;55.728;38.022;2023-03-23T20:23:00;5.57;;;4.13;;
75071;SDS011;63651;55.728;38.022;2023-03-23T20:28:01;4.97;;;3.78;;
75071;SDS011;63651;55.728;38.022;2023-03-23T20:33:03;6.53;;;3.30;;
75071;SDS011;63651;55.728;38.022;2023-03-23T20:38:04;4.57;;;3.22;;
75071;SDS011;63651;55.728;38.022;2023-03-23T20:43:05;4.28;;;3.42;;
75071;SDS011;63651;55.728;38.022;2023-03-23T20:48:06;4.78;;;3.50;;
75071;SDS011;63651;55.728;38.022;2023-03-23T20:53:09;4.93;;;3.15;;
75071;SDS011;63651;55.728;38.022;2023-03-23T20:58:10;4.80;;;3.65;;
75071;SDS011;63651;55.728;38.022;2023-03-23T21:03:11;4.43;;;3.50;;
75071;SDS011;63651;55.728;38.022;2023-03-23T21:08:13;3.85;;;2.95;;
75071;SDS011;63651;55.728;38.022;2023-03-23T21:13:17;3.67;;;2.80;;
75071;SDS011;63651;55.728;38.022;2023-03-23T21:18:21;5.00;;;3.00;;
75071;SDS011;63651;55.728;38.022;2023-03-23T21:23:22;4.13;;;3.10;;
75071;SDS011;63651;55.728;38.022;2023-03-23T21:28:26;3.45;;;2.83;;
75071;SDS011;63651;55.728;38.022;2023-03-23T21:33:28;3.63;;;2.70;;
75071;SDS011;63651;55.728;38.022;2023-03-23T21:38:29;3.97;;;2.90;;
75071;SDS011;63651;55.728;38.022;2023-03-23T21:43:30;3.50;;;3.05;;
75071;SDS011;63651;55.728;38.022;2023-03-23T21:48:31;3.67;;;2.95;;
75071;SDS011;63651;55.728;38.022;2023-03-23T21:53:35;3.75;;;3.10;;
75071;SDS011;63651;55.728;38.022;2023-03-23T21:58:36;4.70;;;3.33;;
75071;SDS011;63651;55.728;38.022;2023-03-23T22:03:38;5.00;;;3.55;;
75071;SDS011;63651;55.728;38.022;2023-03-23T22:08:41;3.65;;;3.20;;
75071;SDS011;63651;55.728;38.022;2023-03-23T22:13:42;4.00;;;3.22;;
75071;SDS011;63651;55.728;38.022;2023-03-23T22:18:44;4.28;;;3.30;;
75071;SDS011;63651;55.728;38.022;2023-03-23T22:23:47;4.05;;;3.33;;
75071;SDS011;63651;55.728;38.022;2023-03-23T22:28:49;4.40;;;3.42;;
75071;SDS011;63651;55.728;38.022;2023-03-23T22:33:51;4.75;;;3.78;;
75071;SDS011;63651;55.728;38.022;2023-03-23T22:38:56;4.53;;;3.40;;
75071;SDS011;63651;55.728;38.022;2023-03-23T22:43:57;4.80;;;3.45;;
75071;SDS011;63651;55.728;38.022;2023-03-23T22:48:58;5.00;;;3.53;;
75071;SDS011;63651;55.728;38.022;2023-03-23T22:53:59;6.07;;;3.70;;
75071;SDS011;63651;55.728;38.022;2023-03-23T22:59:00;5.57;;;4.20;;
75071;SDS011;63651;55.728;38.022;2023-03-23T23:04:01;5.13;;;4.25;;
75071;SDS011;63651;55.728;38.022;2023-03-23T23:09:03;6.78;;;4.70;;
75071;SDS011;63651;55.728;38.022;2023-03-23T23:14:05;5.25;;;4.15;;
75071;SDS011;63651;55.728;38.022;2023-03-23T23:19:06;5.50;;;4.32;;
75071;SDS011;63651;55.728;38.022;2023-03-23T23:24:07;6.03;;;4.57;;
75071;SDS011;63651;55.728;38.022;2023-03-23T23:29:08;5.97;;;5.05;;
75071;SDS011;63651;55.728;38.022;2023-03-23T23:34:10;8.55;;;5.25;;
75071;SDS011;63651;55.728;38.022;2023-03-23T23:39:12;6.35;;;5.07;;
75071;SDS011;63651;55.728;38.022;2023-03-23T23:44:14;5.82;;;4.50;;
75071;SDS011;63651;55.728;38.022;2023-03-23T23:49:15;6.95;;;4.43;;
75071;SDS011;63651;55.728;38.022;2023-03-23T23:54:16;6.13;;;4.47;;
75071;SDS011;63651;55.728;38.022;2023-03-23T23:59:29;5.57;;;4.57;;
